Time;durP1;ratioP1;P1;durP2;ratioP2;P2;SDS_P1;SDS_P2;PMS_P1;PMS_P2;Temp;Humidity;BMP_temperature;BMP_pressure;BME280_temperature;BME280_humidity;BME280_pressure;Samples;Min_cycle;Max_cycle;Signal;HPM_P1;HPM_P2
2022/09/15 00:00:43;;;;;;;;;;;25.00;51.30;;;;;;1592810;72;701;-65
2022/09/15 00:02:45;;;;;;;;;;;25.00;51.30;;;;;;1603274;74;729;-64
2022/09/15 00:04:47;;;;;;;;;;;25.00;51.30;;;;;;1603151;72;792;-64
2022/09/15 00:06:49;;;;;;;;;;;25.00;51.30;;;;;;1604687;73;1939;-65
2022/09/15 00:08:51;;;;;;;;;;;25.00;51.30;;;;;;1589269;72;725;-65
2022/09/15 00:10:57;;;;;;;;;;;25.00;51.30;;;;;;1602572;72;1544;-65
2022/09/15 00:12:59;;;;;;;;;;;25.10;51.30;;;;;;1590047;72;1005;-64
2022/09/15 00:15:01;;;;;;;;;;;25.00;51.20;;;;;;1593214;72;770;-65
2022/09/15 00:17:03;;;;;;;;;;;25.10;51.20;;;;;;1598914;72;1142;-65
2022/09/15 00:19:05;;;;;;;;;;;25.10;51.20;;;;;;1591528;72;945;-65
2022/09/15 00:21:08;;;;;;;;;;;25.10;51.20;;;;;;1596533;72;793;-62
2022/09/15 00:23:10;;;;;;;;;;;25.00;51.20;;;;;;1601175;72;804;-63
2022/09/15 00:25:12;;;;;;;;;;;25.10;51.10;;;;;;1599251;73;749;-65
2022/09/15 00:27:15;;;;;;;;;;;25.10;51.10;;;;;;1604405;72;1913;-65
2022/09/15 00:29:17;;;;;;;;;;;25.10;51.20;;;;;;1604209;72;684;-65
2022/09/15 00:31:20;;;;;;;;;;;25.10;51.10;;;;;;1602681;73;747;-66
2022/09/15 00:33:22;;;;;;;;;;;25.10;51.10;;;;;;1603851;72;729;-65
2022/09/15 00:35:24;;;;;;;;;;;25.10;51.10;;;;;;1603563;73;732;-65
2022/09/15 00:37:26;;;;;;;;;;;25.10;51.10;;;;;;1603778;72;1144;-65
2022/09/15 00:39:27;;;;;;;;;;;25.10;51.00;;;;;;1600093;74;728;-65
2022/09/15 00:41:29;;;;;;;;;;;25.10;51.00;;;;;;1603038;72;771;-65
2022/09/15 00:43:42;;;;;;;;;;;25.10;51.00;;;;;;1615575;72;763;-65
2022/09/15 00:45:44;;;;;;;;;;;25.10;50.90;;;;;;1603529;74;786;-66
2022/09/15 00:47:46;;;;;;;;;;;25.10;50.90;;;;;;1605209;73;1926;-65
2022/09/15 00:49:49;;;;;;;;;;;25.00;51.00;;;;;;1599700;73;765;-67
2022/09/15 00:51:52;;;;;;;;;;;25.00;50.90;;;;;;1605066;72;792;-65
2022/09/15 00:53:54;;;;;;;;;;;25.00;50.90;;;;;;1604381;72;737;-66
2022/09/15 00:55:56;;;;;;;;;;;25.00;50.90;;;;;;1602136;72;780;-65
2022/09/15 00:57:58;;;;;;;;;;;25.10;51.00;;;;;;1605869;72;1193;-64
2022/09/15 01:00:01;;;;;;;;;;;25.10;50.90;;;;;;1603042;72;700;-64
2022/09/15 01:02:05;;;;;;;;;;;25.00;50.90;;;;;;1604007;72;791;-66
2022/09/15 01:04:07;;;;;;;;;;;25.00;50.90;;;;;;1601561;72;1745;-64
2022/09/15 01:06:11;;;;;;;;;;;25.00;50.90;;;;;;1603467;72;1925;-65
2022/09/15 01:08:17;;;;;;;;;;;25.00;50.90;;;;;;1604439;72;1162;-65
2022/09/15 01:10:21;;;;;;;;;;;25.00;50.80;;;;;;1604166;72;714;-65
2022/09/15 01:12:23;;;;;;;;;;;25.00;50.80;;;;;;1598963;73;1104;-65
2022/09/15 01:14:25;;;;;;;;;;;25.00;50.80;;;;;;1592041;72;758;-65
2022/09/15 01:16:31;;;;;;;;;;;25.10;50.80;;;;;;1605015;73;779;-65
2022/09/15 01:18:47;;;;;;;;;;;25.00;50.80;;;;;;1593449;74;1148;-65
2022/09/15 01:21:06;;;;;;;;;;;25.10;50.70;;;;;;1588558;72;697;-65
2022/09/15 01:23:10;;;;;;;;;;;25.10;50.70;;;;;;1601597;72;729;-65
2022/09/15 01:25:26;;;;;;;;;;;25.00;50.70;;;;;;1599190;74;2031;-64
2022/09/15 01:27:39;;;;;;;;;;;25.00;50.70;;;;;;1601772;72;1959;-65
2022/09/15 01:29:45;;;;;;;;;;;25.00;50.70;;;;;;1590502;73;791;-65
2022/09/15 01:34:09;;;;;;;;;;;25.00;50.70;;;;;;1594034;72;1701;-64
2022/09/15 01:36:12;;;;;;;;;;;25.00;50.70;;;;;;1598757;72;730;-65
2022/09/15 01:38:22;;;;;;;;;;;25.00;50.70;;;;;;1602629;73;1143;-66
2022/09/15 01:40:24;;;;;;;;;;;25.00;50.80;;;;;;1597745;72;612;-64
2022/09/15 01:42:26;;;;;;;;;;;25.00;50.70;;;;;;1602553;72;726;-64
2022/09/15 01:44:29;;;;;;;;;;;25.00;50.70;;;;;;1597100;72;728;-65
2022/09/15 01:46:33;;;;;;;;;;;25.00;50.70;;;;;;1602947;72;1904;-66
2022/09/15 01:48:35;;;;;;;;;;;25.00;50.70;;;;;;1599839;74;1119;-66
2022/09/15 01:50:38;;;;;;;;;;;25.00;50.60;;;;;;1591636;73;771;-65
2022/09/15 01:52:44;;;;;;;;;;;25.00;50.60;;;;;;1595619;72;2106;-65
2022/09/15 01:54:48;;;;;;;;;;;25.00;50.60;;;;;;1602299;72;730;-64
2022/09/15 01:56:49;;;;;;;;;;;25.00;50.50;;;;;;1598215;72;709;-66
2022/09/15 01:58:51;;;;;;;;;;;25.00;50.60;;;;;;1602890;72;742;-65
2022/09/15 02:00:55;;;;;;;;;;;25.00;50.60;;;;;;1597448;74;799;-65
2022/09/15 02:02:58;;;;;;;;;;;25.00;50.50;;;;;;1601132;72;1856;-65
2022/09/15 02:05:04;;;;;;;;;;;25.00;50.60;;;;;;1593782;72;801;-65
2022/09/15 02:07:11;;;;;;;;;;;25.00;50.60;;;;;;1594567;73;1970;-66
2022/09/15 02:09:24;;;;;;;;;;;25.00;50.60;;;;;;1589740;72;779;-65
2022/09/15 02:11:27;;;;;;;;;;;25.00;50.60;;;;;;1602753;74;1437;-65
2022/09/15 02:13:47;;;;;;;;;;;25.00;50.50;;;;;;1588700;72;764;-65
2022/09/15 02:15:50;;;;;;;;;;;25.00;50.60;;;;;;1602291;72;739;-65
2022/09/15 02:17:54;;;;;;;;;;;25.00;50.50;;;;;;1601209;72;1168;-64
2022/09/15 02:19:57;;;;;;;;;;;24.90;50.50;;;;;;1603751;72;790;-65
2022/09/15 02:22:08;;;;;;;;;;;25.00;50.50;;;;;;1593506;72;752;-63
2022/09/15 02:24:10;;;;;;;;;;;24.90;50.50;;;;;;1601209;73;1890;-61
2022/09/15 02:26:13;;;;;;;;;;;24.90;50.50;;;;;;1588409;73;675;-65
2022/09/15 02:28:15;;;;;;;;;;;25.00;50.50;;;;;;1604354;72;1934;-64
2022/09/15 02:30:18;;;;;;;;;;;24.90;50.50;;;;;;1596494;72;618;-64
2022/09/15 02:32:22;;;;;;;;;;;25.00;50.50;;;;;;1590559;74;750;-63
2022/09/15 02:34:25;;;;;;;;;;;25.00;50.50;;;;;;1603815;72;725;-64
2022/09/15 02:36:27;;;;;;;;;;;25.00;50.50;;;;;;1602477;72;774;-65
2022/09/15 02:38:30;;;;;;;;;;;25.00;50.50;;;;;;1604689;72;1155;-64
2022/09/15 02:40:32;;;;;;;;;;;25.00;50.30;;;;;;1605013;72;676;-66
2022/09/15 02:42:33;;;;;;;;;;;24.90;50.30;;;;;;1600677;73;656;-63
2022/09/15 02:44:36;;;;;;;;;;;24.90;50.30;;;;;;1605011;72;792;-64
2022/09/15 02:46:38;;;;;;;;;;;24.90;50.30;;;;;;1604087;72;1925;-64
2022/09/15 02:48:40;;;;;;;;;;;25.00;50.30;;;;;;1605035;72;1113;-65
2022/09/15 02:50:42;;;;;;;;;;;24.90;50.30;;;;;;1613054;72;663;-65
2022/09/15 02:52:44;;;;;;;;;;;24.90;50.40;;;;;;1599042;72;762;-67
2022/09/15 02:54:46;;;;;;;;;;;24.90;50.40;;;;;;1598610;74;833;-62
2022/09/15 02:56:48;;;;;;;;;;;24.90;50.40;;;;;;1594955;73;737;-64
2022/09/15 02:58:49;;;;;;;;;;;24.90;50.40;;;;;;1604147;72;1533;-64
2022/09/15 03:00:54;;;;;;;;;;;24.90;50.50;;;;;;1593365;72;776;-65
2022/09/15 03:02:55;;;;;;;;;;;24.90;50.50;;;;;;1590490;72;1668;-66
2022/09/15 03:04:57;;;;;;;;;;;24.90;50.50;;;;;;1600548;72;742;-67
2022/09/15 03:06:59;;;;;;;;;;;24.90;50.50;;;;;;1600002;72;1932;-67
2022/09/15 03:09:01;;;;;;;;;;;24.90;50.60;;;;;;1605232;73;688;-66
2022/09/15 03:11:03;;;;;;;;;;;24.90;50.50;;;;;;1596945;72;745;-67
2022/09/15 03:13:06;;;;;;;;;;;24.90;50.50;;;;;;1595611;72;747;-64
2022/09/15 03:15:08;;;;;;;;;;;25.00;50.50;;;;;;1601799;72;675;-64
2022/09/15 03:17:10;;;;;;;;;;;25.00;50.50;;;;;;1602295;72;1135;-64
2022/09/15 03:19:12;;;;;;;;;;;25.00;50.60;;;;;;1601114;73;809;-66
2022/09/15 03:21:14;;;;;;;;;;;25.00;50.60;;;;;;1603117;74;721;-64
2022/09/15 03:23:16;;;;;;;;;;;25.00;50.70;;;;;;1602554;72;789;-63
2022/09/15 03:25:18;;;;;;;;;;;25.00;50.70;;;;;;1591667;73;837;-64
2022/09/15 03:27:20;;;;;;;;;;;25.00;50.70;;;;;;1603216;72;1934;-63
2022/09/15 03:29:22;;;;;;;;;;;25.10;50.90;;;;;;1606007;72;764;-64
2022/09/15 03:31:24;;;;;;;;;;;25.00;50.90;;;;;;1605283;72;750;-64
2022/09/15 03:33:26;;;;;;;;;;;25.00;50.90;;;;;;1602131;72;900;-64
2022/09/15 03:35:28;;;;;;;;;;;25.00;51.10;;;;;;1592030;72;567;-64
2022/09/15 03:37:29;;;;;;;;;;;25.00;51.10;;;;;;1602063;73;1136;-65
2022/09/15 03:39:31;;;;;;;;;;;25.00;51.10;;;;;;1591003;72;746;-64
2022/09/15 03:41:33;;;;;;;;;;;25.00;51.10;;;;;;1602027;72;781;-64
2022/09/15 03:43:35;;;;;;;;;;;25.00;51.00;;;;;;1602449;72;760;-64
2022/09/15 03:45:37;;;;;;;;;;;25.00;51.00;;;;;;1601782;74;709;-64
2022/09/15 03:47:39;;;;;;;;;;;25.00;51.00;;;;;;1604518;72;1937;-64
2022/09/15 03:49:41;;;;;;;;;;;25.00;51.00;;;;;;1605974;72;774;-64
2022/09/15 03:51:43;;;;;;;;;;;24.90;51.00;;;;;;1600589;72;663;-64
2022/09/15 03:53:45;;;;;;;;;;;25.00;50.90;;;;;;1603162;72;761;-63
2022/09/15 03:55:48;;;;;;;;;;;25.00;50.80;;;;;;1604725;72;1647;-64
2022/09/15 03:57:50;;;;;;;;;;;25.00;50.80;;;;;;1604492;73;1171;-64
2022/09/15 03:59:52;;;;;;;;;;;25.00;50.80;;;;;;1601206;72;762;-64
2022/09/15 04:01:54;;;;;;;;;;;25.00;50.80;;;;;;1602262;72;772;-64
2022/09/15 04:03:56;;;;;;;;;;;25.00;50.70;;;;;;1604030;73;789;-63
2022/09/15 04:05:58;;;;;;;;;;;25.00;50.70;;;;;;1588876;72;760;-63
2022/09/15 04:08:00;;;;;;;;;;;25.10;50.80;;;;;;1592350;72;1955;-65
2022/09/15 04:10:02;;;;;;;;;;;25.10;50.70;;;;;;1597299;72;740;-64
2022/09/15 04:12:04;;;;;;;;;;;25.10;50.50;;;;;;1600632;74;814;-64
2022/09/15 04:14:06;;;;;;;;;;;25.10;50.50;;;;;;1602737;72;782;-64
2022/09/15 04:16:09;;;;;;;;;;;25.00;50.50;;;;;;1604687;73;710;-64
2022/09/15 04:18:11;;;;;;;;;;;25.00;50.50;;;;;;1608195;72;1171;-64
2022/09/15 04:20:13;;;;;;;;;;;25.10;50.40;;;;;;1592942;72;768;-64
2022/09/15 04:22:14;;;;;;;;;;;25.10;50.30;;;;;;1604385;74;655;-64
2022/09/15 04:24:17;;;;;;;;;;;25.10;50.30;;;;;;1596831;72;766;-64
2022/09/15 04:26:20;;;;;;;;;;;25.10;50.30;;;;;;1602740;72;761;-64
2022/09/15 04:28:23;;;;;;;;;;;25.00;50.30;;;;;;1603907;72;1960;-64
2022/09/15 04:30:25;;;;;;;;;;;25.00;50.30;;;;;;1603475;72;670;-65
2022/09/15 04:32:27;;;;;;;;;;;25.00;50.30;;;;;;1606701;73;753;-64
2022/09/15 04:34:29;;;;;;;;;;;25.00;50.40;;;;;;1604553;73;702;-64
2022/09/15 04:36:31;;;;;;;;;;;25.00;50.40;;;;;;1597188;72;720;-64
2022/09/15 04:38:34;;;;;;;;;;;25.10;50.30;;;;;;1603609;72;1124;-65
2022/09/15 04:40:37;;;;;;;;;;;25.10;50.30;;;;;;1601446;72;732;-64
2022/09/15 04:42:38;;;;;;;;;;;25.00;50.30;;;;;;1603388;74;716;-64
2022/09/15 04:44:41;;;;;;;;;;;25.10;50.20;;;;;;1599538;72;744;-65
2022/09/15 04:46:42;;;;;;;;;;;25.10;50.20;;;;;;1604031;72;827;-65
2022/09/15 04:48:44;;;;;;;;;;;25.10;50.20;;;;;;1602068;74;1938;-65
2022/09/15 04:50:46;;;;;;;;;;;25.10;50.20;;;;;;1597893;74;1542;-64
2022/09/15 04:52:48;;;;;;;;;;;25.10;50.00;;;;;;1593677;72;785;-66
2022/09/15 04:54:50;;;;;;;;;;;25.00;50.00;;;;;;1604040;73;712;-65
2022/09/15 04:56:52;;;;;;;;;;;25.00;50.00;;;;;;1597063;73;1158;-66
2022/09/15 04:58:55;;;;;;;;;;;25.00;50.00;;;;;;1596263;72;731;-65
2022/09/15 05:00:56;;;;;;;;;;;25.00;50.10;;;;;;1600708;72;781;-65
2022/09/15 05:02:58;;;;;;;;;;;25.00;50.10;;;;;;1604023;72;749;-67
2022/09/15 05:05:01;;;;;;;;;;;24.90;50.10;;;;;;1604754;74;810;-65
2022/09/15 05:07:02;;;;;;;;;;;24.80;50.10;;;;;;1598230;72;1121;-65
2022/09/15 05:09:05;;;;;;;;;;;24.80;50.10;;;;;;1595930;73;1940;-65
2022/09/15 05:11:08;;;;;;;;;;;24.80;50.10;;;;;;1604399;72;793;-67
2022/09/15 05:13:10;;;;;;;;;;;24.90;50.20;;;;;;1604253;72;777;-65
2022/09/15 05:15:12;;;;;;;;;;;24.80;50.10;;;;;;1598351;72;779;-65
2022/09/15 05:17:14;;;;;;;;;;;24.90;50.20;;;;;;1605170;72;1136;-66
2022/09/15 05:19:15;;;;;;;;;;;24.90;50.20;;;;;;1590212;72;2246;-67
2022/09/15 05:21:18;;;;;;;;;;;24.70;50.20;;;;;;1570157;74;579;-67
2022/09/15 05:23:20;;;;;;;;;;;24.80;50.20;;;;;;1574550;74;798;-67
2022/09/15 05:25:21;;;;;;;;;;;24.80;50.20;;;;;;1574350;74;791;-67
2022/09/15 05:27:23;;;;;;;;;;;24.80;50.10;;;;;;1576220;74;738;-67
2022/09/15 05:29:25;;;;;;;;;;;24.80;50.20;;;;;;1582898;73;1952;-67
2022/09/15 05:31:29;;;;;;;;;;;24.80;50.10;;;;;;1579520;74;775;-68
2022/09/15 05:33:31;;;;;;;;;;;24.80;50.20;;;;;;1560428;74;744;-66
2022/09/15 05:35:33;;;;;;;;;;;24.90;50.30;;;;;;1570604;74;821;-65
2022/09/15 05:37:35;;;;;;;;;;;25.00;50.20;;;;;;1572662;75;792;-67
2022/09/15 05:39:38;;;;;;;;;;;25.00;50.10;;;;;;1574522;74;1081;-67
2022/09/15 05:41:40;;;;;;;;;;;24.90;50.10;;;;;;1567301;74;730;-67
2022/09/15 05:43:47;;;;;;;;;;;24.90;50.10;;;;;;1564755;74;653;-68
2022/09/15 05:45:55;;;;;;;;;;;24.80;50.00;;;;;;1577441;74;701;-67
2022/09/15 05:47:57;;;;;;;;;;;24.80;50.00;;;;;;1574307;74;1946;-67
2022/09/15 05:49:59;;;;;;;;;;;24.80;50.10;;;;;;1579794;74;747;-68
2022/09/15 05:52:01;;;;;;;;;;;24.80;50.10;;;;;;1573666;74;794;-67
2022/09/15 05:54:03;;;;;;;;;;;24.80;50.20;;;;;;1567763;74;807;-68
2022/09/15 05:56:06;;;;;;;;;;;24.80;50.20;;;;;;1569983;75;762;-68
2022/09/15 05:58:08;;;;;;;;;;;24.80;50.20;;;;;;1573413;74;1084;-68
2022/09/15 06:00:10;;;;;;;;;;;24.80;50.20;;;;;;1517602;77;724;-68
2022/09/15 06:02:12;;;;;;;;;;;24.80;50.20;;;;;;1525565;77;782;-68
2022/09/15 06:04:14;;;;;;;;;;;24.80;50.20;;;;;;1537085;76;785;-68
2022/09/15 06:06:16;;;;;;;;;;;24.70;50.20;;;;;;1576273;74;810;-68
2022/09/15 06:08:18;;;;;;;;;;;24.80;50.20;;;;;;1581022;74;1951;-68
2022/09/15 06:10:23;;;;;;;;;;;24.80;50.20;;;;;;1579464;74;815;-68
2022/09/15 06:12:24;;;;;;;;;;;24.70;50.20;;;;;;1574577;74;1218;-69
2022/09/15 06:14:26;;;;;;;;;;;24.70;50.20;;;;;;1515583;77;751;-68
2022/09/15 06:16:29;;;;;;;;;;;24.70;50.20;;;;;;1520876;76;717;-68
2022/09/15 06:18:32;;;;;;;;;;;24.70;50.20;;;;;;1532193;76;1145;-72
2022/09/15 06:20:34;;;;;;;;;;;24.70;50.20;;;;;;1541069;76;678;-68
2022/09/15 06:22:36;;;;;;;;;;;24.70;50.20;;;;;;1512329;77;781;-68
2022/09/15 06:24:38;;;;;;;;;;;24.70;50.20;;;;;;1567438;74;855;-68
2022/09/15 06:26:40;;;;;;;;;;;24.70;50.20;;;;;;1568958;74;714;-68
2022/09/15 06:28:43;;;;;;;;;;;24.70;50.20;;;;;;1569024;74;1938;-68
2022/09/15 06:30:48;;;;;;;;;;;24.70;50.20;;;;;;1569731;74;1665;-68
2022/09/15 06:32:49;;;;;;;;;;;24.70;50.20;;;;;;1573285;74;1549;-67
2022/09/15 06:34:50;;;;;;;;;;;24.70;50.20;;;;;;1570664;74;781;-68
2022/09/15 06:36:52;;;;;;;;;;;24.70;50.20;;;;;;1562357;74;753;-68
2022/09/15 06:38:54;;;;;;;;;;;24.70;50.20;;;;;;1569357;74;1126;-68
2022/09/15 06:40:57;;;;;;;;;;;24.70;50.20;;;;;;1562064;74;780;-68
2022/09/15 06:42:58;;;;;;;;;;;24.70;50.20;;;;;;1570001;74;1497;-68
2022/09/15 06:45:00;;;;;;;;;;;24.70;50.20;;;;;;1564541;75;736;-68
2022/09/15 06:47:02;;;;;;;;;;;24.70;50.20;;;;;;1561321;74;886;-68
2022/09/15 06:49:04;;;;;;;;;;;24.70;50.20;;;;;;1570434;74;1934;-68
2022/09/15 06:51:07;;;;;;;;;;;24.70;50.20;;;;;;1573182;74;715;-68
2022/09/15 06:53:09;;;;;;;;;;;24.70;50.20;;;;;;1569687;76;712;-68
2022/09/15 06:55:11;;;;;;;;;;;24.70;50.20;;;;;;1569492;74;731;-68
2022/09/15 06:57:13;;;;;;;;;;;24.70;50.20;;;;;;1568638;74;780;-68
2022/09/15 06:59:15;;;;;;;;;;;24.70;50.20;;;;;;1575616;73;1150;-66
2022/09/15 07:01:19;;;;;;;;;;;24.80;50.20;;;;;;1572968;74;793;-68
2022/09/15 07:03:21;;;;;;;;;;;24.70;50.20;;;;;;1568326;74;1280;-68
2022/09/15 07:05:24;;;;;;;;;;;24.80;50.30;;;;;;1517347;77;714;-67
2022/09/15 07:07:27;;;;;;;;;;;24.70;50.20;;;;;;1549308;75;745;-68
2022/09/15 07:09:28;;;;;;;;;;;24.70;50.20;;;;;;1552223;75;1963;-68
2022/09/15 07:11:30;;;;;;;;;;;24.70;50.20;;;;;;1571712;74;839;-68
2022/09/15 07:13:32;;;;;;;;;;;24.70;50.30;;;;;;1575837;74;812;-67
2022/09/15 07:15:34;;;;;;;;;;;24.70;50.30;;;;;;1569542;74;879;-68
2022/09/15 07:17:36;;;;;;;;;;;24.70;50.30;;;;;;1569288;74;739;-68
2022/09/15 07:19:40;;;;;;;;;;;24.70;50.30;;;;;;1571215;74;1119;-68
2022/09/15 07:21:41;;;;;;;;;;;24.70;50.30;;;;;;1568755;74;690;-68
2022/09/15 07:23:43;;;;;;;;;;;24.70;50.30;;;;;;1566255;74;798;-70
2022/09/15 07:25:45;;;;;;;;;;;24.70;50.30;;;;;;1568422;74;753;-70
2022/09/15 07:27:47;;;;;;;;;;;24.70;50.30;;;;;;1572648;74;1148;-68
2022/09/15 07:29:49;;;;;;;;;;;24.70;50.30;;;;;;1567451;74;1946;-68
2022/09/15 07:31:51;;;;;;;;;;;24.70;50.30;;;;;;1567568;74;770;-68
2022/09/15 07:33:53;;;;;;;;;;;24.70;50.20;;;;;;1568149;74;782;-68
2022/09/15 07:35:55;;;;;;;;;;;24.70;50.20;;;;;;1569108;74;878;-68
2022/09/15 07:37:57;;;;;;;;;;;24.70;50.20;;;;;;1566049;76;1132;-68
2022/09/15 07:39:59;;;;;;;;;;;24.70;50.20;;;;;;1570009;74;1546;-69
2022/09/15 07:42:01;;;;;;;;;;;24.60;50.10;;;;;;1565324;76;727;-68
2022/09/15 07:44:03;;;;;;;;;;;24.70;50.20;;;;;;1566214;76;737;-68
2022/09/15 07:46:05;;;;;;;;;;;24.70;50.20;;;;;;1566631;74;765;-68
2022/09/15 07:48:07;;;;;;;;;;;24.60;50.10;;;;;;1569589;74;1124;-68
2022/09/15 07:50:09;;;;;;;;;;;24.70;50.20;;;;;;1511649;76;1937;-68
2022/09/15 07:52:11;;;;;;;;;;;24.70;50.20;;;;;;1504543;77;729;-68
2022/09/15 07:54:13;;;;;;;;;;;24.70;50.20;;;;;;1513785;78;784;-68
2022/09/15 07:56:20;;;;;;;;;;;24.70;50.20;;;;;;1565766;75;658;-68
2022/09/15 07:58:19;;;;;;;;;;;24.70;50.20;;;;;;1568537;74;1672;-68
2022/09/15 08:00:20;;;;;;;;;;;24.60;50.10;;;;;;1563793;74;727;-68
2022/09/15 08:02:22;;;;;;;;;;;24.60;50.10;;;;;;1569141;74;785;-68
2022/09/15 08:04:24;;;;;;;;;;;24.60;50.20;;;;;;1559598;74;791;-68
2022/09/15 08:06:26;;;;;;;;;;;24.60;50.30;;;;;;1563346;74;718;-68
2022/09/15 08:08:28;;;;;;;;;;;24.70;50.40;;;;;;1569717;76;1195;-67
2022/09/15 08:10:30;;;;;;;;;;;24.70;50.40;;;;;;1569760;74;1910;-69
2022/09/15 08:12:32;;;;;;;;;;;24.80;50.40;;;;;;1580933;74;732;-68
2022/09/15 08:14:34;;;;;;;;;;;24.80;50.30;;;;;;1569017;74;764;-68
2022/09/15 08:16:36;;;;;;;;;;;24.80;50.20;;;;;;1571137;74;785;-68
2022/09/15 08:18:38;;;;;;;;;;;24.80;50.00;;;;;;1571592;74;1294;-68
2022/09/15 08:20:41;;;;;;;;;;;24.70;50.10;;;;;;1571425;74;801;-68
2022/09/15 08:22:44;;;;;;;;;;;24.80;50.10;;;;;;1563165;74;1387;-68
2022/09/15 08:24:46;;;;;;;;;;;24.70;50.00;;;;;;1577701;74;719;-67
2022/09/15 08:26:48;;;;;;;;;;;24.70;50.10;;;;;;1563267;74;712;-67
2022/09/15 08:28:50;;;;;;;;;;;24.70;50.00;;;;;;1565099;74;1952;-66
2022/09/15 08:30:58;;;;;;;;;;;24.70;50.10;;;;;;1562473;74;763;-67
2022/09/15 08:33:00;;;;;;;;;;;24.70;50.00;;;;;;1566963;74;699;-67
2022/09/15 08:35:02;;;;;;;;;;;24.70;50.00;;;;;;1569501;76;772;-67
2022/09/15 08:37:04;;;;;;;;;;;24.70;50.00;;;;;;1568165;74;1516;-68
2022/09/15 08:39:06;;;;;;;;;;;24.70;50.00;;;;;;1574766;74;1149;-67
2022/09/15 08:41:12;;;;;;;;;;;24.70;50.00;;;;;;1569689;76;764;-67
2022/09/15 08:43:18;;;;;;;;;;;24.70;50.00;;;;;;1567954;74;1811;-67
2022/09/15 08:45:22;;;;;;;;;;;24.70;50.00;;;;;;1564290;74;802;-67
2022/09/15 08:47:27;;;;;;;;;;;24.70;50.00;;;;;;1569593;74;729;-67
2022/09/15 08:49:40;;;;;;;;;;;24.70;50.00;;;;;;1565585;76;1938;-67
2022/09/15 08:51:43;;;;;;;;;;;24.70;49.90;;;;;;1561022;74;923;-67
2022/09/15 08:53:46;;;;;;;;;;;24.70;49.90;;;;;;1574362;74;756;-67
2022/09/15 08:55:49;;;;;;;;;;;24.70;50.00;;;;;;1568906;74;772;-67
2022/09/15 08:57:54;;;;;;;;;;;24.70;49.90;;;;;;1571007;74;1144;-67
2022/09/15 08:59:58;;;;;;;;;;;24.60;49.70;;;;;;1569404;74;769;-67
2022/09/15 09:02:03;;;;;;;;;;;24.70;49.80;;;;;;1569229;74;1663;-67
2022/09/15 09:04:13;;;;;;;;;;;24.70;49.90;;;;;;1569466;74;695;-67
2022/09/15 09:06:25;;;;;;;;;;;24.70;49.90;;;;;;1568716;74;1912;-66
2022/09/15 09:08:32;;;;;;;;;;;24.80;49.90;;;;;;1567480;74;1894;-67
2022/09/15 09:10:44;;;;;;;;;;;24.80;49.80;;;;;;1568554;74;1932;-67
2022/09/15 09:12:50;;;;;;;;;;;24.80;49.80;;;;;;1577302;74;1984;-68
2022/09/15 09:15:03;;;;;;;;;;;24.90;49.90;;;;;;1561417;74;1900;-67
2022/09/15 09:17:21;;;;;;;;;;;24.90;49.70;;;;;;1568843;74;690;-67
2022/09/15 09:19:25;;;;;;;;;;;24.90;49.60;;;;;;1564392;75;1152;-67
2022/09/15 09:21:28;;;;;;;;;;;25.00;49.50;;;;;;1569168;74;795;-67
2022/09/15 09:23:32;;;;;;;;;;;25.00;49.30;;;;;;1567194;76;727;-66
2022/09/15 09:25:35;;;;;;;;;;;25.00;49.10;;;;;;1569641;74;745;-69
2022/09/15 09:27:38;;;;;;;;;;;25.00;48.20;;;;;;1568714;74;722;-68
2022/09/15 09:29:50;;;;;;;;;;;25.00;48.30;;;;;;1565262;76;1939;-67
2022/09/15 09:31:52;;;;;;;;;;;25.00;48.80;;;;;;1507872;77;1556;-68
2022/09/15 09:34:01;;;;;;;;;;;25.00;47.90;;;;;;1513872;77;765;-67
2022/09/15 09:36:03;;;;;;;;;;;25.00;48.50;;;;;;1506881;77;2164;-68
2022/09/15 09:38:05;;;;;;;;;;;24.80;48.50;;;;;;1528004;76;1095;-68
2022/09/15 09:40:09;;;;;;;;;;;25.00;48.40;;;;;;1501809;77;621;-68
2022/09/15 09:42:12;;;;;;;;;;;25.00;48.60;;;;;;1569986;74;732;-68
2022/09/15 09:44:14;;;;;;;;;;;25.00;48.20;;;;;;1569315;74;727;-68
2022/09/15 09:46:17;;;;;;;;;;;25.00;47.60;;;;;;1572149;74;815;-68
2022/09/15 09:48:19;;;;;;;;;;;25.00;48.10;;;;;;1573271;74;1140;-68
2022/09/15 09:50:34;;;;;;;;;;;25.00;47.30;;;;;;1569796;74;1922;-68
2022/09/15 09:52:37;;;;;;;;;;;24.80;46.50;;;;;;1567237;76;627;-68
2022/09/15 09:54:40;;;;;;;;;;;24.80;48.00;;;;;;1570118;74;730;-68
2022/09/15 09:56:42;;;;;;;;;;;24.80;47.80;;;;;;1512008;76;830;-68
2022/09/15 09:58:44;;;;;;;;;;;25.00;47.60;;;;;;1511272;77;1150;-68
2022/09/15 10:00:46;;;;;;;;;;;25.00;47.80;;;;;;1537545;76;816;-67
2022/09/15 10:02:49;;;;;;;;;;;24.90;47.80;;;;;;1527227;76;701;-68
2022/09/15 10:05:01;;;;;;;;;;;24.90;47.80;;;;;;1564208;74;735;-68
2022/09/15 10:07:03;;;;;;;;;;;24.90;47.50;;;;;;1567050;74;755;-68
2022/09/15 10:09:09;;;;;;;;;;;24.80;46.80;;;;;;1569364;74;1176;-68
2022/09/15 10:11:11;;;;;;;;;;;24.80;47.60;;;;;;1570844;74;1921;-68
2022/09/15 10:13:12;;;;;;;;;;;24.80;47.40;;;;;;1569547;74;799;-68
2022/09/15 10:15:21;;;;;;;;;;;24.90;47.50;;;;;;1563207;74;772;-68
2022/09/15 10:17:24;;;;;;;;;;;24.80;47.60;;;;;;1567653;76;744;-68
2022/09/15 10:19:27;;;;;;;;;;;24.80;47.40;;;;;;1569199;74;1139;-68
2022/09/15 10:21:28;;;;;;;;;;;24.80;47.50;;;;;;1563503;74;789;-68
2022/09/15 10:23:31;;;;;;;;;;;24.80;47.50;;;;;;1569361;74;792;-68
2022/09/15 10:27:31;;;;;;;;;;;24.80;47.60;;;;;;1601977;72;639;-60
2022/09/15 10:29:37;;;;;;;;;;;24.80;47.60;;;;;;1552467;76;1498;-62
2022/09/15 10:31:39;;;;;;;;;;;24.90;47.50;;;;;;1516915;77;723;-60
2022/09/15 10:33:43;;;;;;;;;;;25.00;47.60;;;;;;1534104;76;1206;-59
2022/09/15 10:35:45;;;;;;;;;;;25.00;47.50;;;;;;1538711;76;673;-60
2022/09/15 10:37:54;;;;;;;;;;;25.00;47.50;;;;;;1541610;75;651;-58
2022/09/15 10:39:58;;;;;;;;;;;25.00;47.50;;;;;;1571227;74;1885;-61
2022/09/15 10:42:13;;;;;;;;;;;25.00;47.60;;;;;;1573744;74;714;-61
2022/09/15 10:44:20;;;;;;;;;;;25.00;47.60;;;;;;1576703;74;1137;-57
2022/09/15 10:46:24;;;;;;;;;;;25.00;47.60;;;;;;1576791;74;1958;-59
2022/09/15 10:49:07;;;;;;;;;;;25.10;47.60;;;;;;1607937;72;693;-57
2022/09/15 10:51:22;;;;;;;;;;;25.10;47.60;;;;;;1533435;73;1054;-60
2022/09/15 10:53:25;;;;;;;;;;;25.10;47.60;;;;;;1604827;73;1946;-58
2022/09/15 10:55:32;;;;;;;;;;;25.00;47.60;;;;;;1572990;74;1155;-60
2022/09/15 10:57:47;;;;;;;;;;;25.00;47.40;;;;;;1589194;74;742;-60
2022/09/15 11:00:08;;;;;;;;;;;25.00;47.60;;;;;;1576753;74;712;-57
2022/09/15 11:02:21;;;;;;;;;;;25.00;47.70;;;;;;1570364;74;736;-60
2022/09/15 11:04:41;;;;;;;;;;;24.90;47.80;;;;;;1577166;74;1730;-59
2022/09/15 11:07:03;;;;;;;;;;;24.90;47.70;;;;;;1568155;72;230661;-58
2022/09/15 11:09:09;;;;;;;;;;;24.90;47.80;;;;;;1530912;76;706;-57
2022/09/15 11:11:13;;;;;;;;;;;24.80;47.80;;;;;;1507164;78;1774;-59
2022/09/15 11:13:19;;;;;;;;;;;24.80;47.80;;;;;;1508908;77;736;-60
2022/09/15 11:15:25;;;;;;;;;;;24.80;47.80;;;;;;1515585;76;1954;-59
2022/09/15 11:17:45;;;;;;;;;;;24.90;48.00;;;;;;1529257;76;716;-58
2022/09/15 11:19:49;;;;;;;;;;;24.90;48.10;;;;;;1611670;70;229904;-66
2022/09/15 11:21:52;;;;;;;;;;;24.90;48.00;;;;;;1614733;72;1393;-66
2022/09/15 11:23:55;;;;;;;;;;;25.00;47.90;;;;;;1626940;71;738;-67
2022/09/15 11:25:59;;;;;;;;;;;25.00;47.90;;;;;;1625265;71;1590;-66
2022/09/15 11:28:02;;;;;;;;;;;25.00;47.90;;;;;;1630614;72;1941;-67
2022/09/15 11:30:09;;;;;;;;;;;25.00;47.80;;;;;;1595064;74;952;-65
2022/09/15 11:32:11;;;;;;;;;;;25.00;47.70;;;;;;1593122;73;806;-65
2022/09/15 11:34:21;;;;;;;;;;;25.00;47.70;;;;;;1600380;73;820;-67
2022/09/15 11:36:24;;;;;;;;;;;25.00;47.70;;;;;;1590835;73;823;-65
2022/09/15 11:38:37;;;;;;;;;;;24.90;47.80;;;;;;1591144;73;1682;-65
2022/09/15 11:40:41;;;;;;;;;;;24.90;47.90;;;;;;1593628;74;773;-66
2022/09/15 11:42:44;;;;;;;;;;;24.90;47.80;;;;;;1595892;73;680;-66
2022/09/15 11:44:46;;;;;;;;;;;24.90;47.90;;;;;;1579466;73;2011;-64
2022/09/15 11:47:06;;;;;;;;;;;24.90;47.90;;;;;;1598004;73;789;-65
2022/09/15 11:49:13;;;;;;;;;;;24.90;48.00;;;;;;1599332;73;1936;-65
2022/09/15 11:51:15;;;;;;;;;;;24.90;48.00;;;;;;1591148;73;1504;-65
2022/09/15 11:53:35;;;;;;;;;;;24.90;47.90;;;;;;1597954;74;814;-66
2022/09/15 11:55:37;;;;;;;;;;;24.90;47.90;;;;;;1594317;73;717;-63
2022/09/15 11:57:41;;;;;;;;;;;24.90;47.90;;;;;;1597427;74;775;-65
2022/09/15 11:59:45;;;;;;;;;;;24.90;47.80;;;;;;1595122;73;1134;-65
2022/09/15 12:01:48;;;;;;;;;;;24.80;47.90;;;;;;1592690;73;792;-65
2022/09/15 12:03:58;;;;;;;;;;;24.80;48.00;;;;;;1592317;73;715;-66
2022/09/15 12:06:01;;;;;;;;;;;24.80;47.90;;;;;;1601220;73;869;-67
2022/09/15 12:08:04;;;;;;;;;;;24.80;48.10;;;;;;1597211;73;1907;-65
2022/09/15 12:10:08;;;;;;;;;;;24.80;48.40;;;;;;1591181;73;1638;-66
2022/09/15 12:12:14;;;;;;;;;;;24.80;48.40;;;;;;1589009;73;1670;-66
2022/09/15 12:14:18;;;;;;;;;;;24.80;48.50;;;;;;1597826;73;780;-66
2022/09/15 12:16:20;;;;;;;;;;;24.80;48.60;;;;;;1580437;73;1789;-66
2022/09/15 12:18:26;;;;;;;;;;;24.80;48.80;;;;;;1592083;74;1140;-66
2022/09/15 12:20:32;;;;;;;;;;;24.80;48.70;;;;;;1593926;73;1497;-66
2022/09/15 12:22:36;;;;;;;;;;;24.80;48.80;;;;;;1584019;73;1778;-66